sensor_id;sensor_type;location;lat;lon;timestamp;P1;durP1;ratioP1;P2;durP2;ratioP2
47483;SDS011;54076;50.322;18.650;2023-04-06T00:03:03;44.10;;;17.70;;
47483;SDS011;54076;50.322;18.650;2023-04-06T00:08:04;44.70;;;17.50;;
47483;SDS011;54076;50.322;18.650;2023-04-06T00:13:06;35.60;;;15.10;;
47483;SDS011;54076;50.322;18.650;2023-04-06T00:18:08;42.50;;;17.10;;
47483;SDS011;54076;50.322;18.650;2023-04-06T00:23:08;40.80;;;17.90;;
47483;SDS011;54076;50.322;18.650;2023-04-06T00:28:10;48.00;;;18.30;;
47483;SDS011;54076;50.322;18.650;2023-04-06T00:33:11;43.40;;;17.80;;
47483;SDS011;54076;50.322;18.650;2023-04-06T00:38:12;38.00;;;16.90;;
47483;SDS011;54076;50.322;18.650;2023-04-06T00:43:13;43.10;;;16.70;;
47483;SDS011;54076;50.322;18.650;2023-04-06T00:48:14;40.60;;;17.60;;
47483;SDS011;54076;50.322;18.650;2023-04-06T00:53:17;43.90;;;19.10;;
47483;SDS011;54076;50.322;18.650;2023-04-06T00:58:18;46.40;;;19.40;;
47483;SDS011;54076;50.322;18.650;2023-04-06T01:03:19;46.70;;;18.20;;
47483;SDS011;54076;50.322;18.650;2023-04-06T01:08:20;55.00;;;20.50;;
47483;SDS011;54076;50.322;18.650;2023-04-06T01:13:21;57.90;;;23.20;;
47483;SDS011;54076;50.322;18.650;2023-04-06T01:18:28;51.40;;;20.50;;
47483;SDS011;54076;50.322;18.650;2023-04-06T01:23:30;57.00;;;22.00;;
47483;SDS011;54076;50.322;18.650;2023-04-06T01:28:31;57.00;;;20.60;;
47483;SDS011;54076;50.322;18.650;2023-04-06T01:33:32;75.40;;;25.00;;
47483;SDS011;54076;50.322;18.650;2023-04-06T01:38:33;59.90;;;22.60;;
47483;SDS011;54076;50.322;18.650;2023-04-06T01:43:34;68.80;;;22.70;;
47483;SDS011;54076;50.322;18.650;2023-04-06T01:48:35;62.30;;;23.40;;
47483;SDS011;54076;50.322;18.650;2023-04-06T01:53:37;69.20;;;24.70;;
47483;SDS011;54076;50.322;18.650;2023-04-06T01:58:38;55.70;;;22.70;;
47483;SDS011;54076;50.322;18.650;2023-04-06T02:03:39;50.90;;;20.60;;
47483;SDS011;54076;50.322;18.650;2023-04-06T02:08:40;49.90;;;20.60;;
47483;SDS011;54076;50.322;18.650;2023-04-06T02:13:41;51.50;;;20.40;;
47483;SDS011;54076;50.322;18.650;2023-04-06T02:18:42;52.10;;;19.50;;
47483;SDS011;54076;50.322;18.650;2023-04-06T02:23:43;50.10;;;18.30;;
47483;SDS011;54076;50.322;18.650;2023-04-06T02:28:44;45.50;;;17.90;;
47483;SDS011;54076;50.322;18.650;2023-04-06T02:33:45;41.50;;;16.40;;
47483;SDS011;54076;50.322;18.650;2023-04-06T02:38:46;40.90;;;15.60;;
47483;SDS011;54076;50.322;18.650;2023-04-06T02:43:47;36.40;;;15.70;;
47483;SDS011;54076;50.322;18.650;2023-04-06T02:48:48;40.50;;;15.30;;
47483;SDS011;54076;50.322;18.650;2023-04-06T02:53:49;35.60;;;15.20;;
47483;SDS011;54076;50.322;18.650;2023-04-06T02:58:50;40.90;;;17.40;;
47483;SDS011;54076;50.322;18.650;2023-04-06T03:03:51;37.10;;;14.40;;
47483;SDS011;54076;50.322;18.650;2023-04-06T03:08:53;31.50;;;14.20;;
47483;SDS011;54076;50.322;18.650;2023-04-06T03:13:54;36.30;;;13.60;;
47483;SDS011;54076;50.322;18.650;2023-04-06T03:18:55;35.20;;;14.80;;
47483;SDS011;54076;50.322;18.650;2023-04-06T03:23:56;38.60;;;14.20;;
47483;SDS011;54076;50.322;18.650;2023-04-06T03:28:57;34.70;;;15.20;;
47483;SDS011;54076;50.322;18.650;2023-04-06T03:33:58;38.10;;;15.30;;
47483;SDS011;54076;50.322;18.650;2023-04-06T03:38:59;30.90;;;14.10;;
47483;SDS011;54076;50.322;18.650;2023-04-06T03:44:00;31.20;;;13.80;;
47483;SDS011;54076;50.322;18.650;2023-04-06T03:49:01;35.70;;;14.30;;
47483;SDS011;54076;50.322;18.650;2023-04-06T03:54:03;40.60;;;14.30;;
47483;SDS011;54076;50.322;18.650;2023-04-06T03:59:04;33.90;;;15.20;;
47483;SDS011;54076;50.322;18.650;2023-04-06T04:04:05;31.20;;;13.90;;
47483;SDS011;54076;50.322;18.650;2023-04-06T04:09:06;29.70;;;14.10;;
47483;SDS011;54076;50.322;18.650;2023-04-06T04:14:07;33.00;;;13.50;;
47483;SDS011;54076;50.322;18.650;2023-04-06T04:19:08;29.90;;;13.20;;
47483;SDS011;54076;50.322;18.650;2023-04-06T04:24:10;35.50;;;14.80;;
47483;SDS011;54076;50.322;18.650;2023-04-06T04:29:11;38.80;;;15.80;;
47483;SDS011;54076;50.322;18.650;2023-04-06T04:34:12;39.20;;;15.50;;
47483;SDS011;54076;50.322;18.650;2023-04-06T04:39:13;37.40;;;16.60;;
47483;SDS011;54076;50.322;18.650;2023-04-06T04:44:14;35.50;;;16.20;;
47483;SDS011;54076;50.322;18.650;2023-04-06T04:49:15;37.60;;;16.20;;
47483;SDS011;54076;50.322;18.650;2023-04-06T04:54:16;41.60;;;15.70;;
47483;SDS011;54076;50.322;18.650;2023-04-06T04:59:17;34.80;;;15.00;;
47483;SDS011;54076;50.322;18.650;2023-04-06T05:04:18;30.00;;;14.40;;
47483;SDS011;54076;50.322;18.650;2023-04-06T05:09:20;31.70;;;13.90;;
47483;SDS011;54076;50.322;18.650;2023-04-06T05:14:21;32.70;;;14.40;;
47483;SDS011;54076;50.322;18.650;2023-04-06T05:19:22;38.70;;;13.60;;
47483;SDS011;54076;50.322;18.650;2023-04-06T05:24:23;37.60;;;13.40;;
47483;SDS011;54076;50.322;18.650;2023-04-06T05:29:24;31.80;;;14.40;;
47483;SDS011;54076;50.322;18.650;2023-04-06T05:34:25;32.90;;;13.90;;
47483;SDS011;54076;50.322;18.650;2023-04-06T05:39:26;36.10;;;15.40;;
47483;SDS011;54076;50.322;18.650;2023-04-06T05:44:27;39.30;;;16.70;;
47483;SDS011;54076;50.322;18.650;2023-04-06T05:49:28;47.10;;;20.10;;
47483;SDS011;54076;50.322;18.650;2023-04-06T05:54:30;43.90;;;19.30;;
47483;SDS011;54076;50.322;18.650;2023-04-06T05:59:31;47.60;;;19.50;;
47483;SDS011;54076;50.322;18.650;2023-04-06T06:04:32;51.60;;;19.30;;
47483;SDS011;54076;50.322;18.650;2023-04-06T06:09:33;45.50;;;20.10;;
47483;SDS011;54076;50.322;18.650;2023-04-06T06:14:34;50.70;;;19.90;;
47483;SDS011;54076;50.322;18.650;2023-04-06T06:19:35;50.50;;;20.70;;
47483;SDS011;54076;50.322;18.650;2023-04-06T06:24:36;50.80;;;21.10;;
47483;SDS011;54076;50.322;18.650;2023-04-06T06:29:37;50.90;;;20.40;;
47483;SDS011;54076;50.322;18.650;2023-04-06T06:34:38;53.20;;;21.00;;
47483;SDS011;54076;50.322;18.650;2023-04-06T06:39:39;53.90;;;19.50;;
47483;SDS011;54076;50.322;18.650;2023-04-06T06:44:40;49.90;;;20.20;;
47483;SDS011;54076;50.322;18.650;2023-04-06T06:49:41;38.70;;;15.70;;
47483;SDS011;54076;50.322;18.650;2023-04-06T06:54:42;30.20;;;13.10;;
47483;SDS011;54076;50.322;18.650;2023-04-06T06:59:44;19.60;;;8.50;;
47483;SDS011;54076;50.322;18.650;2023-04-06T07:04:48;13.80;;;6.80;;
47483;SDS011;54076;50.322;18.650;2023-04-06T07:09:50;14.20;;;7.00;;
47483;SDS011;54076;50.322;18.650;2023-04-06T07:14:51;15.40;;;6.70;;
47483;SDS011;54076;50.322;18.650;2023-04-06T07:19:52;13.20;;;6.70;;
47483;SDS011;54076;50.322;18.650;2023-04-06T07:24:53;13.60;;;7.00;;
47483;SDS011;54076;50.322;18.650;2023-04-06T07:29:55;16.00;;;7.80;;
47483;SDS011;54076;50.322;18.650;2023-04-06T07:34:56;18.40;;;8.60;;
47483;SDS011;54076;50.322;18.650;2023-04-06T07:39:58;19.90;;;7.80;;
47483;SDS011;54076;50.322;18.650;2023-04-06T07:44:59;17.10;;;7.90;;
47483;SDS011;54076;50.322;18.650;2023-04-06T07:50:00;17.00;;;7.70;;
47483;SDS011;54076;50.322;18.650;2023-04-06T07:55:02;17.50;;;8.40;;
47483;SDS011;54076;50.322;18.650;2023-04-06T08:00:03;20.20;;;8.20;;
47483;SDS011;54076;50.322;18.650;2023-04-06T08:05:05;17.60;;;8.50;;
47483;SDS011;54076;50.322;18.650;2023-04-06T08:10:06;21.20;;;9.90;;
47483;SDS011;54076;50.322;18.650;2023-04-06T08:15:08;18.90;;;9.20;;
47483;SDS011;54076;50.322;18.650;2023-04-06T08:20:09;21.00;;;9.80;;
47483;SDS011;54076;50.322;18.650;2023-04-06T08:25:11;23.20;;;8.90;;
47483;SDS011;54076;50.322;18.650;2023-04-06T08:30:12;17.70;;;8.90;;
47483;SDS011;54076;50.322;18.650;2023-04-06T08:35:15;19.10;;;9.10;;
47483;SDS011;54076;50.322;18.650;2023-04-06T08:40:17;18.20;;;8.20;;
47483;SDS011;54076;50.322;18.650;2023-04-06T08:45:18;15.60;;;8.30;;
47483;SDS011;54076;50.322;18.650;2023-04-06T08:50:21;16.80;;;8.70;;
47483;SDS011;54076;50.322;18.650;2023-04-06T08:55:24;16.30;;;8.00;;
47483;SDS011;54076;50.322;18.650;2023-04-06T09:00:25;15.90;;;8.30;;
47483;SDS011;54076;50.322;18.650;2023-04-06T09:05:28;16.60;;;7.30;;
47483;SDS011;54076;50.322;18.650;2023-04-06T09:10:29;14.10;;;7.20;;
47483;SDS011;54076;50.322;18.650;2023-04-06T09:15:30;14.10;;;7.40;;
47483;SDS011;54076;50.322;18.650;2023-04-06T09:20:31;14.30;;;7.70;;
47483;SDS011;54076;50.322;18.650;2023-04-06T09:25:32;17.20;;;8.10;;
47483;SDS011;54076;50.322;18.650;2023-04-06T09:30:33;16.50;;;8.10;;
47483;SDS011;54076;50.322;18.650;2023-04-06T09:35:36;17.60;;;8.80;;
47483;SDS011;54076;50.322;18.650;2023-04-06T09:40:48;15.90;;;8.60;;
47483;SDS011;54076;50.322;18.650;2023-04-06T09:45:52;15.40;;;7.30;;
47483;SDS011;54076;50.322;18.650;2023-04-06T09:50:56;19.80;;;8.40;;
47483;SDS011;54076;50.322;18.650;2023-04-06T09:56:02;13.90;;;7.50;;
47483;SDS011;54076;50.322;18.650;2023-04-06T10:01:10;13.00;;;7.20;;
47483;SDS011;54076;50.322;18.650;2023-04-06T10:06:14;14.60;;;8.20;;
47483;SDS011;54076;50.322;18.650;2023-04-06T10:11:17;18.30;;;8.20;;
47483;SDS011;54076;50.322;18.650;2023-04-06T10:16:19;18.90;;;8.40;;
47483;SDS011;54076;50.322;18.650;2023-04-06T10:21:21;17.20;;;8.80;;
47483;SDS011;54076;50.322;18.650;2023-04-06T10:26:26;17.10;;;8.80;;
47483;SDS011;54076;50.322;18.650;2023-04-06T10:31:27;15.70;;;8.90;;
47483;SDS011;54076;50.322;18.650;2023-04-06T10:36:33;20.00;;;9.10;;
47483;SDS011;54076;50.322;18.650;2023-04-06T10:41:43;17.90;;;9.30;;
47483;SDS011;54076;50.322;18.650;2023-04-06T10:46:55;18.90;;;9.50;;
47483;SDS011;54076;50.322;18.650;2023-04-06T10:51:57;19.10;;;8.60;;
47483;SDS011;54076;50.322;18.650;2023-04-06T10:56:59;21.60;;;11.10;;
47483;SDS011;54076;50.322;18.650;2023-04-06T11:02:01;14.80;;;7.80;;
47483;SDS011;54076;50.322;18.650;2023-04-06T11:07:02;15.30;;;7.90;;
47483;SDS011;54076;50.322;18.650;2023-04-06T11:12:03;15.80;;;7.90;;
47483;SDS011;54076;50.322;18.650;2023-04-06T11:17:04;15.20;;;7.70;;
47483;SDS011;54076;50.322;18.650;2023-04-06T11:22:07;13.90;;;7.50;;
47483;SDS011;54076;50.322;18.650;2023-04-06T11:27:08;12.30;;;6.50;;
47483;SDS011;54076;50.322;18.650;2023-04-06T11:32:09;11.70;;;6.10;;
47483;SDS011;54076;50.322;18.650;2023-04-06T11:37:11;11.70;;;5.70;;
47483;SDS011;54076;50.322;18.650;2023-04-06T11:42:12;11.10;;;5.90;;
47483;SDS011;54076;50.322;18.650;2023-04-06T11:47:27;12.50;;;6.20;;
47483;SDS011;54076;50.322;18.650;2023-04-06T11:52:34;10.00;;;5.30;;
47483;SDS011;54076;50.322;18.650;2023-04-06T11:57:35;11.90;;;5.50;;
47483;SDS011;54076;50.322;18.650;2023-04-06T12:02:37;11.30;;;5.50;;
47483;SDS011;54076;50.322;18.650;2023-04-06T12:07:38;12.40;;;5.60;;
47483;SDS011;54076;50.322;18.650;2023-04-06T12:12:40;12.80;;;5.60;;
47483;SDS011;54076;50.322;18.650;2023-04-06T12:17:41;9.60;;;4.70;;
47483;SDS011;54076;50.322;18.650;2023-04-06T12:22:42;11.50;;;5.20;;
47483;SDS011;54076;50.322;18.650;2023-04-06T12:27:43;12.30;;;5.60;;
47483;SDS011;54076;50.322;18.650;2023-04-06T12:32:44;11.70;;;5.90;;
47483;SDS011;54076;50.322;18.650;2023-04-06T12:37:45;12.10;;;5.80;;
47483;SDS011;54076;50.322;18.650;2023-04-06T12:42:46;11.90;;;6.30;;
47483;SDS011;54076;50.322;18.650;2023-04-06T12:47:47;18.10;;;9.20;;
47483;SDS011;54076;50.322;18.650;2023-04-06T12:52:48;12.40;;;6.90;;
47483;SDS011;54076;50.322;18.650;2023-04-06T12:57:50;13.10;;;6.90;;
47483;SDS011;54076;50.322;18.650;2023-04-06T13:02:51;12.20;;;6.80;;
47483;SDS011;54076;50.322;18.650;2023-04-06T13:07:52;13.00;;;6.80;;
47483;SDS011;54076;50.322;18.650;2023-04-06T13:12:53;12.90;;;7.20;;
47483;SDS011;54076;50.322;18.650;2023-04-06T13:17:54;15.00;;;7.50;;
47483;SDS011;54076;50.322;18.650;2023-04-06T13:22:55;14.10;;;7.30;;
47483;SDS011;54076;50.322;18.650;2023-04-06T13:27:56;20.10;;;6.80;;
47483;SDS011;54076;50.322;18.650;2023-04-06T13:32:57;12.60;;;6.50;;
47483;SDS011;54076;50.322;18.650;2023-04-06T13:37:58;12.60;;;6.30;;
47483;SDS011;54076;50.322;18.650;2023-04-06T13:42:59;10.60;;;6.10;;
47483;SDS011;54076;50.322;18.650;2023-04-06T13:48:00;11.00;;;6.20;;
47483;SDS011;54076;50.322;18.650;2023-04-06T13:53:01;13.40;;;6.40;;
47483;SDS011;54076;50.322;18.650;2023-04-06T13:58:02;23.60;;;11.20;;
47483;SDS011;54076;50.322;18.650;2023-04-06T14:03:03;13.90;;;6.70;;
47483;SDS011;54076;50.322;18.650;2023-04-06T14:08:04;13.00;;;6.30;;
47483;SDS011;54076;50.322;18.650;2023-04-06T14:13:05;17.30;;;6.80;;
47483;SDS011;54076;50.322;18.650;2023-04-06T14:18:07;12.20;;;6.50;;
47483;SDS011;54076;50.322;18.650;2023-04-06T14:23:09;13.30;;;7.00;;
47483;SDS011;54076;50.322;18.650;2023-04-06T14:28:10;14.40;;;6.90;;
47483;SDS011;54076;50.322;18.650;2023-04-06T14:33:11;14.60;;;7.20;;
47483;SDS011;54076;50.322;18.650;2023-04-06T14:38:12;16.30;;;7.70;;
47483;SDS011;54076;50.322;18.650;2023-04-06T14:43:13;13.50;;;7.30;;
47483;SDS011;54076;50.322;18.650;2023-04-06T14:48:15;16.40;;;8.00;;
47483;SDS011;54076;50.322;18.650;2023-04-06T14:53:17;16.80;;;7.90;;
47483;SDS011;54076;50.322;18.650;2023-04-06T14:58:19;14.30;;;7.80;;
47483;SDS011;54076;50.322;18.650;2023-04-06T15:03:21;16.40;;;8.50;;
47483;SDS011;54076;50.322;18.650;2023-04-06T15:08:23;17.00;;;7.70;;
47483;SDS011;54076;50.322;18.650;2023-04-06T15:13:24;19.50;;;10.40;;
47483;SDS011;54076;50.322;18.650;2023-04-06T15:18:26;17.20;;;8.50;;
47483;SDS011;54076;50.322;18.650;2023-04-06T15:23:27;16.70;;;8.20;;
47483;SDS011;54076;50.322;18.650;2023-04-06T15:28:30;16.60;;;8.40;;
47483;SDS011;54076;50.322;18.650;2023-04-06T15:33:32;17.20;;;9.20;;
47483;SDS011;54076;50.322;18.650;2023-04-06T15:38:33;16.20;;;7.90;;
47483;SDS011;54076;50.322;18.650;2023-04-06T15:43:34;18.30;;;8.60;;
47483;SDS011;54076;50.322;18.650;2023-04-06T15:48:35;18.30;;;8.40;;
47483;SDS011;54076;50.322;18.650;2023-04-06T15:53:36;18.20;;;9.00;;
47483;SDS011;54076;50.322;18.650;2023-04-06T15:58:37;16.60;;;8.70;;
47483;SDS011;54076;50.322;18.650;2023-04-06T16:03:38;19.00;;;9.60;;
47483;SDS011;54076;50.322;18.650;2023-04-06T16:08:39;17.20;;;8.70;;
47483;SDS011;54076;50.322;18.650;2023-04-06T16:13:41;16.60;;;8.80;;
47483;SDS011;54076;50.322;18.650;2023-04-06T16:18:42;16.00;;;8.60;;
47483;SDS011;54076;50.322;18.650;2023-04-06T16:23:43;17.30;;;9.00;;
47483;SDS011;54076;50.322;18.650;2023-04-06T16:28:45;15.00;;;7.80;;
47483;SDS011;54076;50.322;18.650;2023-04-06T16:33:48;14.30;;;7.80;;
47483;SDS011;54076;50.322;18.650;2023-04-06T16:38:50;15.20;;;7.60;;
47483;SDS011;54076;50.322;18.650;2023-04-06T16:43:51;15.70;;;7.40;;
47483;SDS011;54076;50.322;18.650;2023-04-06T16:48:54;15.60;;;7.80;;
47483;SDS011;54076;50.322;18.650;2023-04-06T16:53:55;16.60;;;8.70;;
47483;SDS011;54076;50.322;18.650;2023-04-06T16:58:56;13.80;;;8.10;;
47483;SDS011;54076;50.322;18.650;2023-04-06T17:03:57;19.90;;;8.20;;
47483;SDS011;54076;50.322;18.650;2023-04-06T17:08:58;18.00;;;8.30;;
47483;SDS011;54076;50.322;18.650;2023-04-06T17:13:59;14.90;;;8.00;;
47483;SDS011;54076;50.322;18.650;2023-04-06T17:19:01;16.20;;;7.80;;
47483;SDS011;54076;50.322;18.650;2023-04-06T17:24:02;18.10;;;9.00;;
47483;SDS011;54076;50.322;18.650;2023-04-06T17:29:03;16.90;;;8.20;;
47483;SDS011;54076;50.322;18.650;2023-04-06T17:34:04;23.20;;;11.40;;
47483;SDS011;54076;50.322;18.650;2023-04-06T17:39:05;17.70;;;9.10;;
47483;SDS011;54076;50.322;18.650;2023-04-06T17:44:06;19.10;;;8.70;;
47483;SDS011;54076;50.322;18.650;2023-04-06T17:49:07;16.70;;;8.10;;
47483;SDS011;54076;50.322;18.650;2023-04-06T17:54:09;17.90;;;8.70;;
47483;SDS011;54076;50.322;18.650;2023-04-06T17:59:10;15.60;;;8.90;;
47483;SDS011;54076;50.322;18.650;2023-04-06T18:04:11;20.50;;;8.90;;
47483;SDS011;54076;50.322;18.650;2023-04-06T18:09:12;16.40;;;8.70;;
47483;SDS011;54076;50.322;18.650;2023-04-06T18:14:14;16.60;;;9.10;;
47483;SDS011;54076;50.322;18.650;2023-04-06T18:19:15;17.50;;;8.40;;
47483;SDS011;54076;50.322;18.650;2023-04-06T18:24:16;19.90;;;9.20;;
47483;SDS011;54076;50.322;18.650;2023-04-06T18:29:17;20.20;;;9.50;;
47483;SDS011;54076;50.322;18.650;2023-04-06T18:34:20;16.20;;;8.60;;
47483;SDS011;54076;50.322;18.650;2023-04-06T18:39:21;18.30;;;8.80;;
47483;SDS011;54076;50.322;18.650;2023-04-06T18:44:23;18.80;;;9.50;;
47483;SDS011;54076;50.322;18.650;2023-04-06T18:49:24;20.30;;;9.30;;
47483;SDS011;54076;50.322;18.650;2023-04-06T18:54:25;18.60;;;9.60;;
47483;SDS011;54076;50.322;18.650;2023-04-06T18:59:26;18.60;;;9.40;;
47483;SDS011;54076;50.322;18.650;2023-04-06T19:04:29;21.00;;;10.70;;
47483;SDS011;54076;50.322;18.650;2023-04-06T19:09:30;21.00;;;10.00;;
47483;SDS011;54076;50.322;18.650;2023-04-06T19:14:31;22.80;;;11.50;;
47483;SDS011;54076;50.322;18.650;2023-04-06T19:19:33;43.40;;;18.10;;
47483;SDS011;54076;50.322;18.650;2023-04-06T19:24:34;25.60;;;11.80;;
47483;SDS011;54076;50.322;18.650;2023-04-06T19:29:35;25.10;;;12.30;;
47483;SDS011;54076;50.322;18.650;2023-04-06T19:34:38;25.00;;;12.30;;
47483;SDS011;54076;50.322;18.650;2023-04-06T19:39:39;29.00;;;12.70;;
47483;SDS011;54076;50.322;18.650;2023-04-06T19:44:43;24.90;;;12.30;;
47483;SDS011;54076;50.322;18.650;2023-04-06T19:49:45;23.70;;;11.60;;
47483;SDS011;54076;50.322;18.650;2023-04-06T19:54:46;23.80;;;11.70;;
47483;SDS011;54076;50.322;18.650;2023-04-06T19:59:47;25.90;;;11.30;;
47483;SDS011;54076;50.322;18.650;2023-04-06T20:04:48;25.90;;;12.80;;
47483;SDS011;54076;50.322;18.650;2023-04-06T20:09:49;21.20;;;10.70;;
47483;SDS011;54076;50.322;18.650;2023-04-06T20:14:50;25.80;;;12.50;;
47483;SDS011;54076;50.322;18.650;2023-04-06T20:19:51;30.20;;;14.20;;
47483;SDS011;54076;50.322;18.650;2023-04-06T20:24:53;30.40;;;13.80;;
47483;SDS011;54076;50.322;18.650;2023-04-06T20:29:55;27.90;;;14.10;;
47483;SDS011;54076;50.322;18.650;2023-04-06T20:34:56;31.20;;;15.40;;
47483;SDS011;54076;50.322;18.650;2023-04-06T20:39:57;29.70;;;15.30;;
47483;SDS011;54076;50.322;18.650;2023-04-06T20:44:58;33.20;;;15.80;;
47483;SDS011;54076;50.322;18.650;2023-04-06T20:50:00;33.60;;;15.50;;
47483;SDS011;54076;50.322;18.650;2023-04-06T20:55:01;39.20;;;19.00;;
47483;SDS011;54076;50.322;18.650;2023-04-06T21:00:03;32.10;;;15.60;;
47483;SDS011;54076;50.322;18.650;2023-04-06T21:05:05;30.00;;;14.60;;
47483;SDS011;54076;50.322;18.650;2023-04-06T21:10:08;32.30;;;14.20;;
47483;SDS011;54076;50.322;18.650;2023-04-06T21:15:10;31.50;;;14.90;;
47483;SDS011;54076;50.322;18.650;2023-04-06T21:20:11;29.00;;;13.40;;
47483;SDS011;54076;50.322;18.650;2023-04-06T21:25:12;29.20;;;13.50;;
47483;SDS011;54076;50.322;18.650;2023-04-06T21:30:13;27.50;;;12.70;;
47483;SDS011;54076;50.322;18.650;2023-04-06T21:35:14;25.60;;;12.80;;
47483;SDS011;54076;50.322;18.650;2023-04-06T21:40:15;24.00;;;11.00;;
47483;SDS011;54076;50.322;18.650;2023-04-06T21:45:19;25.80;;;11.60;;
47483;SDS011;54076;50.322;18.650;2023-04-06T21:50:20;23.40;;;11.30;;
47483;SDS011;54076;50.322;18.650;2023-04-06T21:55:21;24.50;;;10.90;;
47483;SDS011;54076;50.322;18.650;2023-04-06T22:00:22;22.70;;;11.00;;
47483;SDS011;54076;50.322;18.650;2023-04-06T22:05:23;22.60;;;11.20;;
47483;SDS011;54076;50.322;18.650;2023-04-06T22:10:24;22.20;;;11.60;;
47483;SDS011;54076;50.322;18.650;2023-04-06T22:15:25;31.30;;;12.20;;
47483;SDS011;54076;50.322;18.650;2023-04-06T22:20:26;33.90;;;13.50;;
47483;SDS011;54076;50.322;18.650;2023-04-06T22:25:27;29.90;;;12.60;;
47483;SDS011;54076;50.322;18.650;2023-04-06T22:30:28;28.70;;;13.20;;
47483;SDS011;54076;50.322;18.650;2023-04-06T22:35:29;28.10;;;12.80;;
47483;SDS011;54076;50.322;18.650;2023-04-06T22:40:30;28.00;;;12.10;;
47483;SDS011;54076;50.322;18.650;2023-04-06T22:45:31;24.50;;;12.10;;
47483;SDS011;54076;50.322;18.650;2023-04-06T22:50:32;27.50;;;11.50;;
47483;SDS011;54076;50.322;18.650;2023-04-06T22:55:33;23.30;;;11.80;;
47483;SDS011;54076;50.322;18.650;2023-04-06T23:00:34;22.90;;;11.80;;
47483;SDS011;54076;50.322;18.650;2023-04-06T23:05:35;29.60;;;12.80;;
47483;SDS011;54076;50.322;18.650;2023-04-06T23:10:36;25.60;;;12.20;;
47483;SDS011;54076;50.322;18.650;2023-04-06T23:15:41;26.20;;;11.80;;
47483;SDS011;54076;50.322;18.650;2023-04-06T23:20:42;25.90;;;11.90;;
47483;SDS011;54076;50.322;18.650;2023-04-06T23:25:43;24.20;;;12.40;;
47483;SDS011;54076;50.322;18.650;2023-04-06T23:30:44;23.90;;;11.90;;
47483;SDS011;54076;50.322;18.650;2023-04-06T23:35:45;21.00;;;11.80;;
47483;SDS011;54076;50.322;18.650;2023-04-06T23:40:46;23.00;;;11.50;;
47483;SDS011;54076;50.322;18.650;2023-04-06T23:45:47;23.30;;;11.60;;
47483;SDS011;54076;50.322;18.650;2023-04-06T23:50:48;24.70;;;12.40;;
47483;SDS011;54076;50.322;18.650;2023-04-06T23:55:49;28.10;;;13.60;;
